Terminal Aerodrome Forecast
Issued by NWS

Home | Current Version | Previous Version | Text Only | Print | Product List | Glossary On
Versions: 1 2 3 4 5 6 7 8 9 10 11 12 13 14 15
000
FTUS42 KMLB 011953 AAA
TAFTIX
TAF AMD
KTIX 011953Z 0120/0218 22010KT 5SM RA SCT020 BKN035 OVC060
      TEMPO 0120/0123 3SM TSRA BKN015CB OVC030
     FM020000 21010KT P6SM VCSH FEW025 BKN150 BKN250=

USA.gov is the U.S. government's official web portal to all federal, state and local government web resources and services.